Airfield :
LOGIN :

Register | Disclaimer

   EN    FR    IT 

 










Legend :    VFR   Marginal VFR   IFR   Intensive IFR   Very Intensive IFR
Visi :
Ceiling :
>= 8 km
>= 3000ft
5 to 8 km
1000 to 3000 ft
1500m to 5 km
500 to 1000 ft
800 to 1500m
200 to 500 ft
< 800m
< 200 ft
Symbols :   Thunderstorms  Fog  Heavy snow  Heavy precipitations  Wind > 20 kt
SIGMETs :     Misc.  Thunderstorms  Icing  Turbulence  Mountain Waves  Volcanic Ashes







- Airport Elevation : 425 ft
- IATA code : DTM


EDLW - Dortmund

CURRENT METAR :
  • 162020Z 23014G26KT 9999 OVC025 05/01 Q1002

EXPIRED METARs :
  • 161950Z 22014KT 9999 OVC026 05/01 Q1003
  • 161920Z 21010KT 9999 OVC028 05/01 Q1003
  • 161850Z 20011KT 9999 OVC031 05/01 Q1003
  • 161820Z 23010KT 9999 OVC029 04/01 Q1003
  • 161750Z 21011KT 9999 BKN029 04/01 Q1004

TAF TAF EDLW
Valid from the 16 at 18:00 until the 17 at 18:00 UTC


161700Z 1618/1718 22010KT 9999 BKN025
BECMG 1618/1621 24015G25KT
TEMPO 1622/1703 23020G30KT RA BKN013
TEMPO 1708/1716 SHRA BKN013CB
TEMPO 1716/1718 SHSNRA BKN012CB
PROB30
TEMPO 1716/1718 2000 -SHSN
No reported NOTAMs for that airfield.



MET'MAP, your aeronautical weather chart ! - Copyright ORBIFLY December 2007 - Disclaimer

ORBIFLY MET'MAP TEAM :

Programming & Development : Alexandra Zaïnal
Concept & Development : Baudouin d'Aumeries
Co-Development & Prog : Marc-Olivier Méhu
Technical & hardware support : Manuel Goepfert

Contact : metmap@orbifly.com




SOURCES & CREDITS :

   NOAA